createdAt,value
2023-05-04T00:02:17.827Z,8.22
2023-05-04T00:04:44.578Z,8.19
2023-05-04T00:07:11.601Z,8.14
2023-05-04T00:09:38.545Z,8.12
2023-05-04T00:12:08.219Z,8.11
2023-05-04T00:14:35.633Z,8.03
2023-05-04T00:17:05.094Z,8.02
2023-05-04T00:19:32.599Z,8.05
2023-05-04T00:21:59.361Z,7.98
2023-05-04T00:24:26.267Z,7.93
2023-05-04T00:26:54.081Z,7.87
2023-05-04T00:29:21.122Z,7.85
2023-05-04T00:31:47.814Z,7.81
2023-05-04T00:34:15.596Z,7.79
2023-05-04T00:36:45.070Z,7.84
2023-05-04T00:39:11.575Z,7.88
2023-05-04T00:41:38.317Z,7.82
2023-05-04T00:44:06.017Z,7.80
2023-05-04T00:46:34.140Z,7.77
2023-05-04T00:49:02.269Z,7.76
2023-05-04T00:51:30.000Z,7.73
2023-05-04T00:53:57.841Z,7.58
2023-05-04T00:56:25.336Z,7.55
2023-05-04T00:58:54.898Z,7.56
2023-05-04T01:01:22.716Z,7.54
2023-05-04T01:03:51.956Z,7.54
2023-05-04T01:06:50.343Z,7.47
2023-05-04T01:09:52.053Z,7.50
2023-05-04T01:12:36.233Z,7.43
2023-05-04T01:15:04.252Z,7.43
2023-05-04T01:17:31.079Z,7.41
2023-05-04T01:19:57.686Z,7.36
2023-05-04T01:22:27.127Z,7.35
2023-05-04T01:24:53.678Z,7.31
2023-05-04T01:27:40.356Z,7.35
2023-05-04T01:30:14.324Z,7.35
2023-05-04T01:32:42.140Z,7.32
2023-05-04T01:35:09.417Z,7.31
2023-05-04T01:37:36.030Z,7.26
2023-05-04T01:40:05.476Z,7.29
2023-05-04T01:42:33.921Z,7.24
2023-05-04T01:45:02.213Z,7.23
2023-05-04T01:47:29.017Z,7.29
2023-05-04T01:49:55.972Z,7.21
2023-05-04T01:52:22.763Z,7.18
2023-05-04T01:54:49.577Z,7.16
2023-05-04T01:57:16.394Z,7.19
2023-05-04T01:59:43.100Z,7.15
2023-05-04T02:02:09.806Z,7.07
2023-05-04T02:04:36.421Z,7.14
2023-05-04T02:07:02.937Z,7.12
2023-05-04T02:09:29.690Z,7.17
2023-05-04T02:11:56.769Z,7.16
2023-05-04T02:14:23.298Z,7.10
2023-05-04T02:16:50.058Z,7.10
2023-05-04T02:19:16.618Z,7.07
2023-05-04T02:21:43.587Z,7.10
2023-05-04T02:24:10.188Z,7.09
2023-05-04T02:26:36.650Z,6.98
2023-05-04T02:29:04.055Z,6.96
2023-05-04T02:31:30.685Z,6.98
2023-05-04T02:33:57.601Z,7.04
2023-05-04T02:36:27.380Z,7.00
2023-05-04T02:38:55.952Z,6.99
2023-05-04T02:41:24.808Z,6.98
2023-05-04T02:43:51.659Z,6.97
2023-05-04T02:46:21.318Z,6.91
2023-05-04T02:48:47.823Z,6.97
2023-05-04T02:51:14.307Z,7.02
2023-05-04T02:53:40.824Z,6.97
2023-05-04T02:56:07.697Z,6.97
2023-05-04T02:58:34.163Z,6.94
2023-05-04T03:01:01.434Z,6.94
2023-05-04T03:03:28.238Z,6.92
2023-05-04T03:05:54.792Z,6.88
2023-05-04T03:08:21.680Z,6.81
2023-05-04T03:10:48.217Z,6.80
2023-05-04T03:13:14.904Z,6.87
2023-05-04T03:15:41.967Z,6.87
2023-05-04T03:18:09.235Z,6.88
2023-05-04T03:20:35.798Z,6.88
2023-05-04T03:23:02.318Z,6.87
2023-05-04T03:25:28.942Z,6.89
2023-05-04T03:27:55.704Z,6.86
2023-05-04T03:30:22.313Z,6.82
2023-05-04T03:32:49.635Z,6.86
2023-05-04T03:35:24.113Z,6.88
2023-05-04T03:37:51.986Z,6.85
2023-05-04T03:40:23.158Z,6.78
2023-05-04T03:42:52.667Z,6.82
2023-05-04T03:45:19.557Z,6.90
2023-05-04T03:47:46.737Z,6.89
2023-05-04T03:50:13.420Z,6.90
2023-05-04T03:52:40.294Z,6.89
2023-05-04T03:55:07.331Z,6.90
2023-05-04T03:57:33.818Z,6.91
2023-05-04T04:00:00.621Z,6.92
2023-05-04T04:02:28.534Z,6.84
2023-05-04T04:04:55.481Z,6.83
2023-05-04T04:07:22.170Z,6.76
2023-05-04T04:09:49.100Z,6.83
2023-05-04T04:12:20.359Z,6.83
2023-05-04T04:14:48.886Z,6.88
2023-05-04T04:17:15.648Z,6.86
2023-05-04T04:19:42.374Z,6.83
2023-05-04T04:22:09.126Z,6.78
2023-05-04T04:24:37.224Z,6.77
2023-05-04T04:27:03.925Z,6.76
2023-05-04T04:29:31.141Z,6.80
2023-05-04T04:31:57.946Z,6.75
2023-05-04T04:34:28.462Z,6.73
2023-05-04T04:36:54.937Z,6.80
2023-05-04T04:39:22.701Z,6.77
2023-05-04T04:41:49.503Z,6.81
2023-05-04T04:44:16.571Z,6.83
2023-05-04T04:46:44.588Z,6.83
2023-05-04T04:49:12.118Z,6.83
2023-05-04T04:51:41.070Z,6.86
2023-05-04T04:54:07.634Z,6.79
2023-05-04T04:56:34.242Z,6.80
2023-05-04T04:59:02.914Z,6.84
2023-05-04T05:01:30.144Z,6.88
2023-05-04T05:03:57.320Z,6.90
2023-05-04T05:06:24.277Z,6.89
2023-05-04T05:08:51.725Z,6.93
2023-05-04T05:11:18.532Z,6.92
2023-05-04T05:13:45.032Z,6.98
2023-05-04T05:16:11.760Z,6.97
2023-05-04T05:18:38.540Z,6.99
2023-05-04T05:21:05.479Z,7.03
2023-05-04T05:23:32.191Z,7.04
2023-05-04T05:25:59.470Z,7.11
2023-05-04T05:28:27.365Z,7.10
2023-05-04T05:30:54.031Z,7.18
2023-05-04T05:33:21.393Z,7.19
2023-05-04T05:35:48.132Z,7.26
2023-05-04T05:38:16.190Z,7.36
2023-05-04T05:40:43.760Z,7.34
2023-05-04T05:43:10.747Z,7.41
2023-05-04T05:45:37.261Z,7.46
2023-05-04T05:48:04.138Z,7.57
2023-05-04T05:50:30.920Z,7.69
2023-05-04T05:52:57.729Z,7.63
2023-05-04T05:55:24.912Z,7.77
2023-05-04T05:57:51.557Z,7.81
2023-05-04T06:00:18.646Z,7.90
2023-05-04T06:02:45.398Z,7.99
2023-05-04T06:05:12.685Z,8.06
2023-05-04T06:07:39.248Z,8.08
2023-05-04T06:10:06.566Z,8.20
2023-05-04T06:12:33.643Z,8.21
2023-05-04T06:15:00.580Z,8.24
2023-05-04T06:17:28.230Z,8.21
2023-05-04T06:19:55.046Z,8.32
2023-05-04T06:22:21.681Z,8.44
2023-05-04T06:24:48.351Z,8.51
2023-05-04T06:27:14.972Z,8.53
2023-05-04T06:29:41.784Z,8.58
2023-05-04T06:32:10.016Z,8.67
2023-05-04T06:34:36.728Z,8.82
2023-05-04T06:37:03.466Z,8.91
2023-05-04T06:39:30.470Z,8.99
2023-05-04T06:41:57.151Z,9.08
2023-05-04T06:44:23.758Z,9.03
2023-05-04T06:46:51.741Z,9.12
2023-05-04T06:49:18.603Z,9.35
2023-05-04T06:51:45.987Z,9.55
2023-05-04T06:54:13.053Z,9.85
2023-05-04T06:56:40.026Z,10.03
2023-05-04T06:59:07.303Z,10.07
2023-05-04T07:01:33.951Z,10.20
2023-05-04T07:04:00.919Z,10.19
2023-05-04T07:06:28.576Z,10.20
2023-05-04T07:08:55.178Z,10.54
2023-05-04T07:11:23.514Z,10.74
2023-05-04T07:13:50.151Z,10.79
2023-05-04T07:16:19.138Z,10.87
2023-05-04T07:18:46.025Z,11.05
2023-05-04T07:21:26.724Z,11.16
2023-05-04T07:23:56.039Z,11.22
2023-05-04T07:26:23.889Z,11.41
2023-05-04T07:28:50.599Z,11.65
2023-05-04T07:31:18.207Z,11.80
2023-05-04T07:33:44.759Z,11.94
2023-05-04T07:36:14.005Z,12.04
2023-05-04T07:38:42.001Z,12.11
2023-05-04T07:41:08.602Z,12.18
2023-05-04T07:43:35.434Z,12.21
2023-05-04T07:46:02.816Z,12.26
2023-05-04T07:48:29.698Z,12.35
2023-05-04T07:50:56.612Z,12.41
2023-05-04T07:53:25.496Z,12.53
2023-05-04T07:55:54.712Z,12.61
2023-05-04T07:58:21.381Z,12.58
2023-05-04T08:00:48.106Z,12.72
2023-05-04T08:03:14.766Z,12.86
2023-05-04T08:05:41.398Z,12.90
2023-05-04T08:08:11.151Z,12.97
2023-05-04T08:10:39.036Z,13.11
2023-05-04T08:13:06.040Z,12.94
2023-05-04T08:15:32.885Z,13.01
2023-05-04T08:17:59.485Z,13.08
2023-05-04T08:20:26.250Z,13.09
2023-05-04T08:22:53.438Z,13.17
2023-05-04T08:25:21.071Z,13.32
2023-05-04T08:27:47.620Z,13.29
2023-05-04T08:30:14.829Z,13.43
2023-05-04T08:32:41.386Z,13.52
2023-05-04T08:35:08.227Z,13.69
2023-05-04T08:37:34.873Z,13.78
2023-05-04T08:40:01.525Z,13.85
2023-05-04T08:42:29.835Z,13.90
2023-05-04T08:44:57.365Z,14.00
2023-05-04T08:47:25.632Z,13.99
2023-05-04T08:49:56.493Z,14.05
2023-05-04T08:52:27.156Z,14.14
2023-05-04T08:54:56.709Z,14.35
2023-05-04T08:57:24.519Z,14.55
2023-05-04T08:59:53.529Z,14.68
2023-05-04T09:02:22.100Z,14.68
2023-05-04T09:04:52.736Z,14.82
2023-05-04T09:07:20.569Z,14.91
2023-05-04T09:09:48.599Z,14.97
2023-05-04T09:12:15.455Z,15.08
2023-05-04T09:14:42.047Z,15.15
2023-05-04T09:17:29.536Z,15.25
2023-05-04T09:20:04.005Z,15.30
2023-05-04T09:22:31.216Z,15.34
2023-05-04T09:25:09.122Z,15.39
2023-05-04T09:27:36.134Z,15.34
2023-05-04T09:30:02.932Z,15.44
2023-05-04T09:32:30.083Z,15.49
2023-05-04T09:34:56.855Z,15.56
2023-05-04T09:37:25.966Z,15.60
2023-05-04T09:39:55.123Z,15.80
2023-05-04T09:42:25.999Z,15.91
2023-05-04T09:45:03.833Z,15.90
2023-05-04T09:47:41.598Z,16.05
2023-05-04T09:50:26.852Z,16.12
2023-05-04T09:52:53.372Z,16.20
2023-05-04T09:55:21.077Z,16.35
2023-05-04T09:57:48.812Z,16.45
2023-05-04T10:00:17.302Z,16.49
2023-05-04T10:02:46.941Z,16.61
2023-05-04T10:05:18.736Z,16.61
2023-05-04T10:07:46.740Z,16.76
2023-05-04T10:10:14.940Z,16.86
2023-05-04T10:12:41.579Z,17.12
2023-05-04T10:15:10.401Z,17.31
2023-05-04T10:17:55.248Z,17.47
2023-05-04T10:20:40.524Z,17.49
2023-05-04T10:23:13.673Z,17.60
2023-05-04T10:26:06.263Z,17.78
2023-05-04T10:28:59.901Z,17.86
2023-05-04T10:31:40.730Z,17.89
2023-05-04T10:34:08.533Z,17.86
2023-05-04T10:36:44.365Z,17.78
2023-05-04T10:39:19.561Z,17.89
2023-05-04T10:42:02.402Z,17.95
2023-05-04T10:44:29.914Z,18.02
2023-05-04T10:47:02.874Z,18.16
2023-05-04T10:49:29.884Z,18.22
2023-05-04T10:52:05.819Z,18.35
2023-05-04T10:54:34.078Z,18.45
2023-05-04T10:57:09.403Z,18.62
2023-05-04T10:59:39.053Z,18.63
2023-05-04T11:02:06.704Z,18.65
2023-05-04T11:04:35.644Z,18.66
2023-05-04T11:07:03.084Z,18.72
2023-05-04T11:09:37.787Z,18.72
2023-05-04T11:12:06.933Z,18.95
2023-05-04T11:14:37.837Z,19.04
2023-05-04T11:17:26.716Z,19.13
2023-05-04T11:19:55.468Z,19.27
2023-05-04T11:22:25.139Z,19.41
2023-05-04T11:24:51.846Z,19.50
2023-05-04T11:27:26.417Z,19.62
2023-05-04T11:30:06.266Z,19.59
2023-05-04T11:32:39.061Z,19.75
2023-05-04T11:35:09.129Z,19.72
2023-05-04T11:37:40.940Z,19.87
2023-05-04T11:40:11.516Z,19.98
2023-05-04T11:42:40.645Z,20.11
2023-05-04T11:45:12.409Z,20.11
2023-05-04T11:47:39.976Z,20.02
2023-05-04T11:50:07.133Z,20.15
2023-05-04T11:52:36.276Z,20.07
2023-05-04T11:55:03.738Z,20.31
2023-05-04T11:57:32.044Z,20.25
2023-05-04T11:59:58.750Z,20.31
2023-05-04T12:02:27.108Z,20.40
2023-05-04T12:04:53.956Z,20.55
2023-05-04T12:07:20.812Z,20.72
2023-05-04T12:09:49.233Z,20.72
2023-05-04T12:12:19.223Z,20.76
2023-05-04T12:14:53.651Z,20.75
2023-05-04T12:17:21.077Z,20.87
2023-05-04T12:19:52.495Z,21.00
2023-05-04T12:22:30.478Z,20.96
2023-05-04T12:24:58.647Z,21.06
2023-05-04T12:27:26.262Z,21.12
2023-05-04T12:29:54.780Z,21.21
2023-05-04T12:32:21.629Z,21.25
2023-05-04T12:34:48.176Z,21.39
2023-05-04T12:37:14.904Z,21.54
2023-05-04T12:39:42.199Z,21.67
2023-05-04T12:42:08.825Z,21.66
2023-05-04T12:44:35.954Z,21.74
2023-05-04T12:47:02.483Z,21.77
2023-05-04T12:49:30.223Z,21.98
2023-05-04T12:51:56.774Z,21.97
2023-05-04T12:54:23.775Z,21.93
2023-05-04T12:56:50.593Z,21.91
2023-05-04T12:59:17.244Z,21.82
2023-05-04T13:01:44.577Z,22.06
2023-05-04T13:04:11.199Z,22.27
2023-05-04T13:06:37.818Z,22.34
2023-05-04T13:09:06.009Z,22.49
2023-05-04T13:11:33.035Z,22.31
2023-05-04T13:14:01.172Z,22.28
2023-05-04T13:16:28.504Z,22.16
2023-05-04T13:18:55.447Z,22.18
2023-05-04T13:21:22.003Z,22.10
2023-05-04T13:23:51.198Z,22.15
2023-05-04T13:26:18.294Z,22.21
2023-05-04T13:28:44.749Z,22.29
2023-05-04T13:31:23.748Z,22.30
2023-05-04T13:33:50.482Z,22.16
2023-05-04T13:36:17.330Z,22.24
2023-05-04T13:38:43.806Z,22.28
2023-05-04T13:41:10.667Z,22.28
2023-05-04T13:43:37.482Z,22.35
2023-05-04T13:46:04.931Z,22.35
2023-05-04T13:48:33.830Z,22.42
2023-05-04T13:51:04.165Z,22.43
2023-05-04T13:53:31.299Z,22.41
2023-05-04T13:55:57.963Z,22.51
2023-05-04T13:58:24.467Z,22.58
2023-05-04T14:00:51.111Z,22.64
2023-05-04T14:03:18.119Z,22.57
2023-05-04T14:05:44.680Z,22.57
2023-05-04T14:08:11.282Z,22.76
2023-05-04T14:10:38.409Z,22.89
2023-05-04T14:13:05.371Z,22.90
2023-05-04T14:15:32.266Z,22.87
2023-05-04T14:17:58.898Z,22.88
2023-05-04T14:20:25.418Z,22.89
2023-05-04T14:22:52.171Z,22.82
2023-05-04T14:25:18.934Z,22.87
2023-05-04T14:27:45.714Z,22.86
2023-05-04T14:30:12.766Z,22.88
2023-05-04T14:32:41.118Z,22.80
2023-05-04T14:35:10.238Z,22.87
2023-05-04T14:37:39.232Z,22.92
2023-05-04T14:40:07.960Z,23.03
2023-05-04T14:42:35.954Z,22.99
2023-05-04T14:45:03.439Z,22.94
2023-05-04T14:47:30.880Z,23.01
2023-05-04T14:49:57.607Z,23.01
2023-05-04T14:52:24.186Z,23.08
2023-05-04T14:54:50.672Z,23.01
2023-05-04T14:57:17.285Z,22.94
2023-05-04T14:59:44.364Z,22.86
2023-05-04T15:02:12.786Z,22.84
2023-05-04T15:04:39.628Z,22.75
2023-05-04T15:07:06.140Z,22.83
2023-05-04T15:09:32.807Z,22.94
2023-05-04T15:11:59.498Z,22.98
2023-05-04T15:14:26.540Z,23.03
2023-05-04T15:16:53.148Z,22.90
2023-05-04T15:19:21.102Z,22.89
2023-05-04T15:21:47.670Z,22.91
2023-05-04T15:24:14.486Z,23.05
2023-05-04T15:26:41.246Z,23.10
2023-05-04T15:29:07.909Z,23.16
2023-05-04T15:31:34.485Z,23.22
2023-05-04T15:34:01.405Z,23.14
2023-05-04T15:36:28.143Z,23.16
2023-05-04T15:38:54.886Z,23.18
2023-05-04T15:41:21.486Z,23.07
2023-05-04T15:43:48.068Z,23.03
2023-05-04T15:46:17.547Z,23.03
2023-05-04T15:48:44.339Z,22.85
2023-05-04T15:51:14.236Z,22.91
2023-05-04T15:53:40.937Z,22.92
2023-05-04T15:56:08.033Z,22.76
2023-05-04T15:58:34.609Z,22.70
2023-05-04T16:01:03.960Z,22.62
2023-05-04T16:03:33.355Z,22.64
2023-05-04T16:05:59.938Z,22.60
2023-05-04T16:08:26.941Z,22.57
2023-05-04T16:10:53.942Z,22.56
2023-05-04T16:13:21.266Z,22.52
2023-05-04T16:15:51.946Z,22.64
2023-05-04T16:18:18.979Z,22.62
2023-05-04T16:20:48.396Z,22.70
2023-05-04T16:23:16.313Z,22.68
2023-05-04T16:25:43.715Z,22.81
2023-05-04T16:28:11.335Z,22.86
2023-05-04T16:30:38.145Z,22.80
2023-05-04T16:33:04.990Z,22.70
2023-05-04T16:35:32.110Z,22.68
2023-05-04T16:37:59.306Z,22.68
2023-05-04T16:40:26.550Z,22.59
2023-05-04T16:42:54.457Z,22.56
2023-05-04T16:45:21.257Z,22.57
2023-05-04T16:47:48.270Z,22.52
2023-05-04T16:50:15.146Z,22.41
2023-05-04T16:52:41.686Z,22.37
2023-05-04T16:55:12.095Z,22.28
2023-05-04T16:57:39.293Z,22.23
2023-05-04T17:00:07.535Z,22.09
2023-05-04T17:02:35.170Z,22.04
2023-05-04T17:05:02.126Z,21.97
2023-05-04T17:07:29.022Z,21.93
2023-05-04T17:09:55.642Z,21.85
2023-05-04T17:12:23.245Z,21.94
2023-05-04T17:14:49.870Z,21.98
2023-05-04T17:17:16.382Z,22.00
2023-05-04T17:19:42.980Z,21.87
2023-05-04T17:22:11.447Z,21.77
2023-05-04T17:24:38.078Z,21.64
2023-05-04T17:27:06.250Z,21.60
2023-05-04T17:29:32.842Z,21.52
2023-05-04T17:31:59.448Z,21.45
2023-05-04T17:34:25.992Z,21.30
2023-05-04T17:36:52.531Z,21.25
2023-05-04T17:39:19.086Z,21.29
2023-05-04T17:41:49.099Z,21.21
2023-05-04T17:44:16.331Z,21.31
2023-05-04T17:46:43.935Z,21.27
2023-05-04T17:49:10.557Z,21.18
2023-05-04T17:51:37.617Z,21.14
2023-05-04T17:54:04.499Z,21.07
2023-05-04T17:56:31.233Z,21.00
2023-05-04T17:58:57.791Z,21.05
2023-05-04T18:01:24.718Z,20.98
2023-05-04T18:03:51.843Z,20.87
2023-05-04T18:06:18.480Z,20.67
2023-05-04T18:08:45.279Z,20.64
2023-05-04T18:11:12.355Z,20.55
2023-05-04T18:13:38.871Z,20.41
2023-05-04T18:16:05.746Z,20.32
2023-05-04T18:18:32.249Z,20.32
2023-05-04T18:21:00.143Z,20.24
2023-05-04T18:23:27.146Z,20.05
2023-05-04T18:25:53.672Z,19.93
2023-05-04T18:28:20.298Z,19.93
2023-05-04T18:30:47.216Z,19.88
2023-05-04T18:33:15.497Z,19.84
2023-05-04T18:35:42.452Z,19.69
2023-05-04T18:38:08.953Z,19.64
2023-05-04T18:40:35.735Z,19.57
2023-05-04T18:43:02.500Z,19.39
2023-05-04T18:45:29.101Z,19.31
2023-05-04T18:47:55.633Z,19.18
2023-05-04T18:50:22.123Z,19.06
2023-05-04T18:52:49.960Z,19.05
2023-05-04T18:55:16.587Z,19.06
2023-05-04T18:57:43.025Z,18.97
2023-05-04T19:00:10.417Z,18.90
2023-05-04T19:02:37.316Z,18.89
2023-05-04T19:05:04.215Z,18.81
2023-05-04T19:07:31.500Z,18.73
2023-05-04T19:09:58.277Z,18.73
2023-05-04T19:12:25.228Z,18.63
2023-05-04T19:14:55.288Z,18.50
2023-05-04T19:17:25.534Z,18.38
2023-05-04T19:19:52.071Z,18.33
2023-05-04T19:22:18.603Z,18.28
2023-05-04T19:24:50.529Z,18.16
2023-05-04T19:27:17.205Z,18.01
2023-05-04T19:29:43.827Z,17.88
2023-05-04T19:32:22.780Z,17.85
2023-05-04T19:34:50.735Z,17.79
2023-05-04T19:37:17.206Z,17.81
2023-05-04T19:39:43.819Z,17.83
2023-05-04T19:42:10.380Z,17.78
2023-05-04T19:44:37.068Z,17.78
2023-05-04T19:47:03.672Z,17.71
2023-05-04T19:49:30.225Z,17.55
2023-05-04T19:51:56.731Z,17.55
2023-05-04T19:54:23.203Z,17.47
2023-05-04T19:56:49.715Z,17.43
2023-05-04T19:59:16.233Z,17.46
2023-05-04T20:01:42.847Z,17.44
2023-05-04T20:04:09.675Z,17.32
2023-05-04T20:06:37.546Z,17.32
2023-05-04T20:09:04.962Z,17.20
2023-05-04T20:11:32.990Z,17.07
2023-05-04T20:13:59.857Z,17.05
2023-05-04T20:16:27.023Z,16.95
2023-05-04T20:18:53.604Z,16.97
2023-05-04T20:21:20.565Z,16.87
2023-05-04T20:23:47.046Z,16.73
2023-05-04T20:26:13.521Z,16.78
2023-05-04T20:28:40.113Z,16.73
2023-05-04T20:31:07.846Z,16.65
2023-05-04T20:33:34.464Z,16.61
2023-05-04T20:36:01.240Z,16.47
2023-05-04T20:38:27.837Z,16.43
2023-05-04T20:40:54.961Z,16.41
2023-05-04T20:43:21.955Z,16.35
2023-05-04T20:45:48.557Z,16.29
2023-05-04T20:48:15.204Z,16.18
2023-05-04T20:50:41.943Z,16.22
2023-05-04T20:53:09.250Z,16.24
2023-05-04T20:55:36.288Z,16.15
2023-05-04T20:58:02.793Z,16.09
2023-05-04T21:00:30.616Z,16.09
2023-05-04T21:02:58.736Z,16.07
2023-05-04T21:05:25.387Z,16.02
2023-05-04T21:07:52.461Z,16.08
2023-05-04T21:10:19.744Z,16.00
2023-05-04T21:12:46.744Z,15.83
2023-05-04T21:15:13.683Z,15.85
2023-05-04T21:17:40.407Z,15.87
2023-05-04T21:20:08.045Z,15.77
2023-05-04T21:22:34.891Z,15.84
2023-05-04T21:25:01.676Z,15.81
2023-05-04T21:27:28.427Z,15.78
2023-05-04T21:29:55.150Z,15.83
2023-05-04T21:32:21.953Z,15.81
2023-05-04T21:34:55.169Z,15.87
2023-05-04T21:37:21.717Z,15.94
2023-05-04T21:39:53.888Z,15.95
2023-05-04T21:42:20.850Z,15.96
2023-05-04T21:44:47.403Z,15.95
2023-05-04T21:47:13.929Z,15.90
2023-05-04T21:49:40.971Z,15.87
2023-05-04T21:52:08.551Z,15.88
2023-05-04T21:54:36.398Z,15.83
2023-05-04T21:57:03.621Z,15.88
2023-05-04T21:59:30.353Z,15.85
2023-05-04T22:01:57.241Z,15.80
2023-05-04T22:04:24.001Z,15.78
2023-05-04T22:06:50.729Z,15.80
2023-05-04T22:09:17.316Z,15.80
2023-05-04T22:11:43.841Z,15.74
2023-05-04T22:14:10.627Z,15.68
2023-05-04T22:16:38.223Z,15.67
2023-05-04T22:19:05.242Z,15.61
2023-05-04T22:21:32.556Z,15.56
2023-05-04T22:24:00.478Z,15.48
2023-05-04T22:26:28.392Z,15.44
2023-05-04T22:28:54.962Z,15.52
2023-05-04T22:31:21.724Z,15.45
2023-05-04T22:33:48.608Z,15.35
2023-05-04T22:36:15.355Z,15.41
2023-05-04T22:38:41.842Z,15.46
2023-05-04T22:41:08.357Z,15.43
2023-05-04T22:43:35.111Z,15.33
2023-05-04T22:46:01.777Z,15.27
2023-05-04T22:48:28.319Z,15.33
2023-05-04T22:50:55.823Z,15.33
2023-05-04T22:53:22.385Z,15.35
2023-05-04T22:55:49.057Z,15.31
2023-05-04T22:58:16.747Z,15.23
2023-05-04T23:00:43.603Z,15.19
2023-05-04T23:03:11.275Z,15.11
2023-05-04T23:05:37.804Z,15.03
2023-05-04T23:08:04.982Z,15.03
2023-05-04T23:10:31.815Z,14.97
2023-05-04T23:12:58.661Z,14.97
2023-05-04T23:15:25.234Z,14.94
2023-05-04T23:17:55.781Z,14.95
2023-05-04T23:20:22.291Z,14.90
2023-05-04T23:22:49.854Z,14.84
2023-05-04T23:25:16.888Z,14.85
2023-05-04T23:27:44.565Z,14.82
2023-05-04T23:30:11.522Z,14.78
2023-05-04T23:32:38.260Z,14.68
2023-05-04T23:35:05.357Z,14.63
2023-05-04T23:37:34.847Z,14.62
2023-05-04T23:40:01.976Z,14.64
2023-05-04T23:42:28.705Z,14.65
2023-05-04T23:44:56.449Z,14.64
2023-05-04T23:47:25.449Z,14.63
2023-05-04T23:49:52.328Z,14.62
2023-05-04T23:52:18.806Z,14.68
2023-05-04T23:54:46.440Z,14.72
2023-05-04T23:57:12.988Z,14.68
2023-05-04T23:59:40.372Z,14.65
